Time;durP1;ratioP1;P1;durP2;ratioP2;P2;SDS_P1;SDS_P2;PMS_P1;PMS_P2;Temp;Humidity;BMP_temperature;BMP_pressure;BME280_temperature;BME280_humidity;BME280_pressure;Samples;Min_cycle;Max_cycle;Signal;HPM_P1;HPM_P2
2024/02/26 00:00:47;;;;;;;3.70;2.53;;;9.10;98.00;;;;;;5051886;28;20530;-71
2024/02/26 00:03:14;;;;;;;6.23;2.30;;;9.20;98.00;;;;;;5052114;28;20452;-71
2024/02/26 00:05:41;;;;;;;3.83;2.60;;;9.20;98.00;;;;;;5052096;28;20805;-72
2024/02/26 00:08:10;;;;;;;4.27;2.80;;;9.20;98.00;;;;;;5051653;28;20477;-72
2024/02/26 00:10:38;;;;;;;3.77;2.50;;;9.10;98.00;;;;;;5034545;28;20481;-72
2024/02/26 00:13:05;;;;;;;4.60;2.70;;;9.10;98.00;;;;;;5034422;28;20462;-72
2024/02/26 00:15:35;;;;;;;3.47;2.30;;;9.10;98.00;;;;;;5052178;28;20456;-72
2024/02/26 00:18:02;;;;;;;3.20;2.43;;;9.00;98.00;;;;;;5051999;28;20459;-72
2024/02/26 00:20:29;;;;;;;4.93;2.93;;;9.00;98.00;;;;;;5051480;28;20491;-72
2024/02/26 00:22:56;;;;;;;5.40;2.70;;;9.00;98.00;;;;;;5051536;28;20452;-72
2024/02/26 00:25:26;;;;;;;3.93;2.50;;;9.00;98.00;;;;;;5051647;28;20495;-72
2024/02/26 00:27:53;;;;;;;3.83;2.63;;;8.90;98.00;;;;;;5051616;28;20458;-72
2024/02/26 00:30:29;;;;;;;3.47;2.40;;;8.80;98.00;;;;;;5051752;28;20992;-72
2024/02/26 00:32:57;;;;;;;3.80;2.50;;;8.90;98.00;;;;;;5051716;28;20481;-72
2024/02/26 00:35:24;;;;;;;5.30;2.50;;;9.00;98.00;;;;;;5051410;28;20484;-72
2024/02/26 00:37:51;;;;;;;4.83;2.90;;;9.10;98.00;;;;;;5033745;28;20455;-72
2024/02/26 00:40:18;;;;;;;4.20;2.60;;;9.10;98.00;;;;;;5050948;28;20932;-72
2024/02/26 00:42:47;;;;;;;7.30;2.47;;;9.10;98.00;;;;;;5051279;28;20448;-72
2024/02/26 00:45:16;;;;;;;4.63;2.60;;;9.00;98.00;;;;;;5051522;28;20456;-72
2024/02/26 00:47:45;;;;;;;3.50;2.50;;;8.90;98.00;;;;;;5051089;28;20942;-71
2024/02/26 00:50:14;;;;;;;4.23;2.60;;;8.90;98.00;;;;;;5051177;28;20979;-71
2024/02/26 00:52:41;;;;;;;9.00;2.77;;;8.90;98.00;;;;;;5034558;28;20461;-71
2024/02/26 00:55:08;;;;;;;4.70;2.70;;;8.90;98.00;;;;;;5037494;28;20515;-72
2024/02/26 00:57:36;;;;;;;4.40;2.60;;;8.80;98.00;;;;;;5055124;28;20469;-72
2024/02/26 01:00:08;;;;;;;5.20;2.90;;;8.80;98.00;;;;;;5054435;28;20458;-72
2024/02/26 01:02:35;;;;;;;3.97;2.80;;;8.80;98.00;;;;;;5055131;28;20488;-72
2024/02/26 01:05:03;;;;;;;4.33;2.80;;;8.60;98.00;;;;;;5037376;28;20456;-72
2024/02/26 01:07:35;;;;;;;4.10;2.73;;;8.50;98.00;;;;;;5054082;28;20454;-72
2024/02/26 01:10:02;;;;;;;3.80;2.57;;;8.60;98.00;;;;;;5037387;28;20546;-72
2024/02/26 01:12:29;;;;;;;7.07;2.63;;;8.50;98.00;;;;;;5054351;28;20493;-72
2024/02/26 01:14:56;;;;;;;3.63;2.50;;;8.50;98.00;;;;;;5054643;28;20443;-72
2024/02/26 01:17:25;;;;;;;4.53;2.70;;;8.50;98.00;;;;;;5053922;28;20447;-72
2024/02/26 01:19:53;;;;;;;3.80;2.37;;;8.40;98.00;;;;;;5054905;28;20475;-72
2024/02/26 01:22:21;;;;;;;4.23;2.37;;;8.30;98.00;;;;;;5054750;28;20456;-72
2024/02/26 01:24:48;;;;;;;4.90;2.50;;;8.30;98.00;;;;;;5037455;28;20830;-72
2024/02/26 01:27:15;;;;;;;4.13;2.80;;;8.40;98.00;;;;;;5054616;28;20451;-72
2024/02/26 01:29:42;;;;;;;3.73;2.50;;;8.50;98.00;;;;;;5054822;28;20441;-72
2024/02/26 01:32:10;;;;;;;4.03;2.80;;;8.60;98.00;;;;;;5054732;28;20480;-71
2024/02/26 01:34:38;;;;;;;3.47;2.50;;;8.60;98.00;;;;;;5054906;28;20470;-72
2024/02/26 01:37:05;;;;;;;3.57;2.30;;;8.70;98.00;;;;;;5054578;28;20465;-72
2024/02/26 01:39:33;;;;;;;5.93;2.47;;;8.60;98.00;;;;;;5054616;28;20493;-72
2024/02/26 01:42:00;;;;;;;3.77;2.73;;;8.60;98.00;;;;;;5054485;28;20457;-72
2024/02/26 01:44:28;;;;;;;5.30;2.90;;;8.70;98.00;;;;;;5054290;28;20453;-71
2024/02/26 01:46:55;;;;;;;4.17;2.80;;;8.70;98.00;;;;;;5054276;28;20450;-72
2024/02/26 01:49:22;;;;;;;4.70;2.60;;;8.70;98.00;;;;;;5036512;28;20449;-72
2024/02/26 01:51:52;;;;;;;4.23;2.83;;;8.50;98.00;;;;;;5054209;28;20500;-72
2024/02/26 01:54:19;;;;;;;4.87;2.77;;;8.70;98.00;;;;;;5036498;28;20449;-72
2024/02/26 01:56:46;;;;;;;3.50;2.40;;;8.70;98.00;;;;;;5053987;28;20452;-71
2024/02/26 01:59:14;;;;;;;4.97;2.70;;;8.60;98.00;;;;;;5053899;28;20445;-72
2024/02/26 02:01:46;;;;;;;3.87;2.47;;;8.50;98.00;;;;;;5036213;28;20510;-72
2024/02/26 02:04:14;;;;;;;4.20;2.47;;;8.50;98.00;;;;;;5052994;28;20492;-72
2024/02/26 02:06:43;;;;;;;5.70;2.93;;;8.40;98.00;;;;;;5054188;28;20447;-72
2024/02/26 02:09:12;;;;;;;6.17;2.60;;;8.30;98.00;;;;;;5053854;28;20450;-72
2024/02/26 02:11:40;;;;;;;2.77;2.10;;;8.30;98.00;;;;;;5053953;28;20573;-72
2024/02/26 02:14:07;;;;;;;4.00;2.40;;;8.40;98.00;;;;;;5053943;28;20459;-71
2024/02/26 02:16:34;;;;;;;3.13;2.30;;;8.40;98.00;;;;;;5053814;28;20451;-72
2024/02/26 02:19:05;;;;;;;4.10;2.63;;;8.30;98.00;;;;;;5053619;28;20925;-71
2024/02/26 02:21:33;;;;;;;4.33;2.53;;;8.20;98.00;;;;;;5053680;28;20460;-71
2024/02/26 02:24:00;;;;;;;4.37;2.27;;;8.20;98.00;;;;;;5053461;28;20976;-71
2024/02/26 02:26:28;;;;;;;3.77;2.17;;;8.30;98.00;;;;;;5036046;28;20450;-72
2024/02/26 02:28:55;;;;;;;3.27;2.40;;;8.20;98.00;;;;;;5036075;28;20923;-72
2024/02/26 02:31:22;;;;;;;4.27;2.50;;;8.20;98.00;;;;;;5053704;28;20484;-72
2024/02/26 02:33:50;;;;;;;3.77;2.47;;;8.30;98.00;;;;;;5036448;28;20481;-72
2024/02/26 02:36:17;;;;;;;4.60;2.10;;;8.30;98.00;;;;;;5054023;28;20453;-72
2024/02/26 02:38:52;;;;;;;3.87;2.37;;;8.30;98.00;;;;;;5053785;28;20447;-72
2024/02/26 02:41:21;;;;;;;4.87;2.33;;;8.20;98.00;;;;;;5053724;28;20900;-71
2024/02/26 02:43:48;;;;;;;3.40;2.30;;;8.10;98.00;;;;;;5053688;28;20920;-72
2024/02/26 02:46:15;;;;;;;3.73;2.50;;;8.00;98.00;;;;;;5053342;28;20460;-72
2024/02/26 02:48:43;;;;;;;3.33;2.37;;;8.00;98.00;;;;;;5053186;28;20894;-72
2024/02/26 02:51:10;;;;;;;2.93;2.20;;;8.00;98.00;;;;;;5052801;28;20483;-72
2024/02/26 02:53:37;;;;;;;6.17;2.63;;;8.00;98.00;;;;;;5053007;28;20451;-71
2024/02/26 02:56:06;;;;;;;3.50;2.40;;;8.10;98.00;;;;;;5052897;28;20470;-72
2024/02/26 02:58:35;;;;;;;3.90;2.50;;;8.10;98.00;;;;;;5052846;28;20453;-71
2024/02/26 03:01:03;;;;;;;4.77;2.97;;;8.10;98.00;;;;;;5053055;28;20449;-72
2024/02/26 03:03:30;;;;;;;5.63;3.20;;;8.10;98.00;;;;;;5034612;28;20461;-72
2024/02/26 03:05:57;;;;;;;4.57;2.70;;;8.00;98.00;;;;;;5052935;28;20962;-72
2024/02/26 03:08:25;;;;;;;5.27;3.00;;;8.00;98.00;;;;;;5052633;28;20457;-72
2024/02/26 03:10:53;;;;;;;5.27;2.93;;;8.10;98.00;;;;;;5052805;28;20486;-71
2024/02/26 03:13:22;;;;;;;4.97;2.90;;;8.20;98.00;;;;;;5034864;28;20471;-71
2024/02/26 03:15:51;;;;;;;3.93;2.70;;;8.20;98.00;;;;;;5052980;28;20455;-72
2024/02/26 03:18:19;;;;;;;5.67;3.30;;;8.20;98.00;;;;;;5034882;28;20981;-72
2024/02/26 03:20:47;;;;;;;6.23;3.00;;;8.20;98.00;;;;;;5052108;28;20459;-72
2024/02/26 03:23:16;;;;;;;3.90;2.63;;;8.40;98.00;;;;;;5052406;28;20449;-71
2024/02/26 03:25:43;;;;;;;6.73;3.20;;;8.30;98.00;;;;;;5052882;28;20453;-72
2024/02/26 03:28:10;;;;;;;4.30;2.73;;;8.20;98.00;;;;;;5034931;28;20456;-72
2024/02/26 03:30:50;;;;;;;5.03;2.77;;;8.20;98.00;;;;;;5052982;28;20446;-72
2024/02/26 03:33:17;;;;;;;3.97;2.53;;;8.30;98.00;;;;;;5052472;28;20456;-71
2024/02/26 03:35:44;;;;;;;3.67;2.67;;;8.40;98.00;;;;;;5034235;28;20456;-72
2024/02/26 03:38:11;;;;;;;5.53;3.10;;;8.30;98.00;;;;;;5052911;28;20960;-72
2024/02/26 03:40:39;;;;;;;4.97;3.00;;;8.10;98.00;;;;;;5034286;28;20466;-71
2024/02/26 03:43:07;;;;;;;5.10;2.90;;;8.10;98.00;;;;;;5052670;28;20473;-71
2024/02/26 03:45:34;;;;;;;5.40;3.10;;;8.10;98.00;;;;;;5052429;28;20444;-72
2024/02/26 03:48:02;;;;;;;5.40;2.80;;;8.30;98.00;;;;;;5052045;28;20457;-71
2024/02/26 03:50:30;;;;;;;4.97;2.90;;;8.20;98.00;;;;;;5052025;28;20931;-71
2024/02/26 03:52:57;;;;;;;3.70;2.53;;;8.10;98.00;;;;;;5034296;28;20481;-72
2024/02/26 03:55:26;;;;;;;5.03;3.00;;;8.00;98.00;;;;;;5051953;28;20462;-72
2024/02/26 03:57:53;;;;;;;4.17;2.77;;;7.90;98.00;;;;;;5051819;28;20461;-71
2024/02/26 04:00:21;;;;;;;5.33;3.10;;;7.90;98.00;;;;;;5051446;28;20454;-71
2024/02/26 04:02:48;;;;;;;5.80;3.30;;;7.90;98.00;;;;;;5051213;28;20455;-72
2024/02/26 04:05:16;;;;;;;5.60;2.80;;;7.90;98.00;;;;;;5051159;28;20453;-72
2024/02/26 04:07:48;;;;;;;4.43;3.00;;;7.70;98.00;;;;;;5051847;28;20824;-72
2024/02/26 04:10:15;;;;;;;4.60;2.77;;;7.80;98.00;;;;;;5051438;28;20457;-71
2024/02/26 04:12:43;;;;;;;4.73;2.80;;;7.80;98.00;;;;;;5051601;28;20481;-71
2024/02/26 04:15:11;;;;;;;5.20;2.73;;;7.90;98.00;;;;;;5051590;28;20457;-72
2024/02/26 04:17:39;;;;;;;4.37;2.93;;;7.80;98.00;;;;;;5051518;28;20451;-71
2024/02/26 04:20:07;;;;;;;5.47;2.60;;;7.80;98.00;;;;;;5050518;28;20983;-72
2024/02/26 04:22:38;;;;;;;4.13;2.40;;;7.80;98.00;;;;;;5050963;28;20460;-71
2024/02/26 04:25:06;;;;;;;4.87;2.70;;;7.80;98.00;;;;;;5034565;28;20460;-72
2024/02/26 04:27:34;;;;;;;4.03;2.90;;;7.90;98.00;;;;;;5051899;28;20963;-72
2024/02/26 04:30:01;;;;;;;5.30;3.00;;;7.90;98.00;;;;;;5038351;28;20484;-72
2024/02/26 04:32:29;;;;;;;4.30;2.80;;;7.90;98.00;;;;;;5055447;28;20484;-72
2024/02/26 04:34:56;;;;;;;9.30;3.00;;;7.70;98.00;;;;;;5056206;28;20464;-72
2024/02/26 04:37:25;;;;;;;5.57;3.10;;;7.60;98.00;;;;;;5055075;28;20453;-71
2024/02/26 04:39:54;;;;;;;4.27;2.70;;;7.70;98.00;;;;;;5055747;28;20458;-72
2024/02/26 04:42:21;;;;;;;4.70;2.70;;;7.70;98.00;;;;;;5055710;28;20476;-72
2024/02/26 04:44:48;;;;;;;4.90;2.50;;;7.70;98.00;;;;;;5055720;28;20468;-72
2024/02/26 04:47:15;;;;;;;5.33;2.70;;;7.80;98.00;;;;;;5055507;28;20499;-71
2024/02/26 04:49:43;;;;;;;6.37;2.90;;;7.80;98.00;;;;;;5055699;28;20454;-71
2024/02/26 04:52:10;;;;;;;5.03;2.60;;;7.70;98.00;;;;;;5021176;28;20599;-71
2024/02/26 04:54:37;;;;;;;3.70;2.50;;;7.80;98.00;;;;;;5055406;28;20789;-71
2024/02/26 04:57:05;;;;;;;3.53;2.50;;;7.60;98.00;;;;;;5055790;28;20472;-71
2024/02/26 04:59:33;;;;;;;4.20;2.70;;;7.60;98.00;;;;;;5055364;28;20857;-72
2024/02/26 05:02:00;;;;;;;7.30;2.77;;;7.70;98.00;;;;;;5055008;28;20533;-71
2024/02/26 05:04:27;;;;;;;6.13;2.90;;;7.70;98.00;;;;;;5054925;28;20476;-72
2024/02/26 05:06:54;;;;;;;3.87;2.37;;;7.60;98.00;;;;;;5054949;28;20450;-71
2024/02/26 05:09:21;;;;;;;4.97;2.93;;;7.70;98.00;;;;;;5054959;28;20489;-72
2024/02/26 05:11:48;;;;;;;4.57;2.63;;;7.60;98.00;;;;;;5055045;28;20481;-72
2024/02/26 05:14:17;;;;;;;3.87;2.63;;;7.50;98.00;;;;;;5054942;28;20533;-71
2024/02/26 05:16:44;;;;;;;3.10;2.30;;;7.50;98.00;;;;;;5055084;28;20450;-71
2024/02/26 05:19:11;;;;;;;4.73;2.63;;;7.40;98.00;;;;;;5055109;28;20468;-71
2024/02/26 05:21:38;;;;;;;3.53;2.43;;;7.20;98.00;;;;;;5055015;28;20459;-72
2024/02/26 05:24:06;;;;;;;4.97;2.67;;;7.30;98.00;;;;;;5055027;28;20460;-71
2024/02/26 05:26:33;;;;;;;4.27;2.57;;;7.30;98.00;;;;;;5055090;28;20453;-71
2024/02/26 05:29:00;;;;;;;4.73;2.70;;;7.30;98.00;;;;;;5055242;28;20491;-72
2024/02/26 05:31:29;;;;;;;3.80;2.37;;;7.20;98.00;;;;;;5054918;28;20838;-72
2024/02/26 05:33:56;;;;;;;5.37;2.80;;;7.10;98.00;;;;;;5054646;28;20450;-71
2024/02/26 05:36:25;;;;;;;4.97;2.40;;;7.20;98.00;;;;;;5054607;28;20449;-71
2024/02/26 05:38:52;;;;;;;4.80;2.83;;;7.20;98.00;;;;;;5054648;28;20461;-71
2024/02/26 05:41:22;;;;;;;5.70;3.07;;;7.30;98.00;;;;;;5054348;28;20870;-71
2024/02/26 05:43:50;;;;;;;4.23;2.30;;;7.30;98.00;;;;;;5054028;28;20633;-72
2024/02/26 05:46:18;;;;;;;4.30;2.60;;;7.30;98.00;;;;;;5054286;28;20452;-71
2024/02/26 05:48:48;;;;;;;5.03;2.60;;;7.30;98.00;;;;;;5054073;28;20486;-72
2024/02/26 05:51:16;;;;;;;3.60;2.33;;;7.30;98.00;;;;;;5054094;28;20446;-71
2024/02/26 05:53:43;;;;;;;5.20;2.90;;;7.10;98.00;;;;;;5053742;28;20488;-71
2024/02/26 05:56:10;;;;;;;6.67;2.83;;;7.00;98.00;;;;;;5053909;28;20916;-71
2024/02/26 05:58:37;;;;;;;4.47;2.40;;;7.10;98.00;;;;;;5053948;28;20851;-71
2024/02/26 06:01:05;;;;;;;4.87;2.47;;;7.10;98.00;;;;;;5054006;28;20458;-72
2024/02/26 06:03:32;;;;;;;5.63;2.50;;;7.20;98.00;;;;;;5053673;28;20461;-71
2024/02/26 06:06:00;;;;;;;4.17;2.50;;;7.10;98.00;;;;;;5053740;28;20449;-72
2024/02/26 06:08:27;;;;;;;4.40;2.50;;;7.00;98.00;;;;;;5053585;28;20457;-72
2024/02/26 06:10:54;;;;;;;4.40;2.80;;;7.10;98.00;;;;;;5053816;28;20536;-71
2024/02/26 06:13:21;;;;;;;5.40;2.50;;;7.20;98.00;;;;;;5053471;28;20571;-71
2024/02/26 06:15:49;;;;;;;4.73;2.63;;;7.20;98.00;;;;;;5053514;28;20450;-72
2024/02/26 06:18:16;;;;;;;4.23;3.13;;;7.20;98.00;;;;;;5053542;28;20468;-72
2024/02/26 06:20:43;;;;;;;5.07;2.77;;;7.10;98.00;;;;;;5036015;28;20449;-72
2024/02/26 06:23:11;;;;;;;5.00;3.03;;;7.00;98.00;;;;;;5053438;28;20457;-71
2024/02/26 06:25:39;;;;;;;6.00;3.00;;;7.10;98.00;;;;;;5053242;28;20451;-72
2024/02/26 06:28:06;;;;;;;7.97;3.47;;;7.20;98.00;;;;;;5053500;28;20882;-71
2024/02/26 06:30:33;;;;;;;5.80;3.00;;;7.20;98.00;;;;;;5053337;28;20453;-71
2024/02/26 06:33:00;;;;;;;6.50;3.17;;;7.20;98.00;;;;;;5053274;28;20484;-71
2024/02/26 06:35:28;;;;;;;5.80;3.13;;;7.10;98.00;;;;;;5053550;28;20454;-71
2024/02/26 06:37:55;;;;;;;6.33;2.97;;;7.20;98.00;;;;;;5053592;28;20801;-72
2024/02/26 06:40:25;;;;;;;5.27;3.20;;;7.20;98.00;;;;;;5053516;28;20442;-72
2024/02/26 06:42:52;;;;;;;4.57;2.93;;;7.20;98.00;;;;;;5053370;28;20449;-72
2024/02/26 06:45:20;;;;;;;5.13;3.07;;;7.20;98.00;;;;;;5053624;28;20537;-72
2024/02/26 06:47:47;;;;;;;5.33;3.03;;;7.10;98.00;;;;;;5053672;28;20826;-72
2024/02/26 06:50:14;;;;;;;5.27;2.90;;;7.10;98.00;;;;;;5052877;28;20463;-72
2024/02/26 06:52:41;;;;;;;4.90;3.00;;;7.10;98.00;;;;;;5052842;28;20490;-72
2024/02/26 06:55:09;;;;;;;3.97;2.60;;;7.10;98.00;;;;;;5052421;28;20818;-72
2024/02/26 06:57:40;;;;;;;4.23;2.77;;;7.10;98.00;;;;;;5052348;28;20959;-71
2024/02/26 07:00:08;;;;;;;6.00;3.60;;;7.10;98.00;;;;;;5052987;28;20961;-81
2024/02/26 07:02:35;;;;;;;7.53;2.93;;;7.00;98.00;;;;;;5035492;28;20460;-81
2024/02/26 07:05:03;;;;;;;4.93;2.73;;;7.00;98.00;;;;;;5053257;28;20450;-81
2024/02/26 07:07:30;;;;;;;5.03;3.10;;;7.10;98.00;;;;;;5053260;28;20532;-81
2024/02/26 07:09:57;;;;;;;4.90;3.20;;;7.00;98.00;;;;;;5053254;28;20454;-80
2024/02/26 07:12:24;;;;;;;6.50;3.10;;;7.00;98.00;;;;;;5035446;28;21040;-81
2024/02/26 07:14:53;;;;;;;4.50;2.80;;;7.00;98.00;;;;;;5053123;28;20458;-81
2024/02/26 07:17:20;;;;;;;5.67;2.77;;;7.10;98.00;;;;;;5035574;28;20887;-81
2024/02/26 07:19:47;;;;;;;4.60;2.87;;;7.00;98.00;;;;;;5053645;28;20456;-80
2024/02/26 07:22:14;;;;;;;5.27;2.90;;;7.10;98.00;;;;;;5053210;28;20462;-80
2024/02/26 07:24:42;;;;;;;4.40;2.70;;;7.10;98.00;;;;;;5052899;28;20449;-80
2024/02/26 07:27:09;;;;;;;6.27;3.40;;;7.00;98.00;;;;;;5018972;28;20504;-80
2024/02/26 07:29:36;;;;;;;6.30;3.03;;;7.00;98.00;;;;;;5053123;28;20462;-81
2024/02/26 07:32:06;;;;;;;6.43;3.30;;;7.10;98.00;;;;;;5052773;28;20446;-80
2024/02/26 07:34:33;;;;;;;4.63;3.07;;;7.20;98.00;;;;;;5052705;28;20493;-80
2024/02/26 07:37:00;;;;;;;4.80;2.90;;;7.20;98.00;;;;;;5054323;28;20932;-80
2024/02/26 07:39:27;;;;;;;7.33;3.10;;;7.20;98.00;;;;;;5054616;28;20462;-79
2024/02/26 07:41:54;;;;;;;4.37;2.93;;;7.30;98.00;;;;;;5034954;28;20574;-79
2024/02/26 07:44:21;;;;;;;5.10;2.70;;;7.40;98.00;;;;;;5052385;28;20457;-79
2024/02/26 07:46:48;;;;;;;6.37;3.37;;;7.60;98.00;;;;;;5034744;28;20458;-79
2024/02/26 07:49:22;;;;;;;6.03;3.23;;;7.90;98.00;;;;;;5052753;28;20457;-80
2024/02/26 07:51:49;;;;;;;5.20;2.90;;;7.80;98.00;;;;;;5052434;28;20470;-79
2024/02/26 07:54:19;;;;;;;6.13;3.07;;;7.80;98.00;;;;;;5052368;28;20489;-79
2024/02/26 07:56:46;;;;;;;5.70;3.10;;;7.80;98.00;;;;;;5052098;28;20483;-79
2024/02/26 07:59:13;;;;;;;4.83;3.13;;;8.10;98.00;;;;;;5052304;28;20453;-79
2024/02/26 08:01:41;;;;;;;4.87;2.60;;;8.30;98.00;;;;;;5052162;28;20449;-79
2024/02/26 08:04:08;;;;;;;5.80;3.07;;;8.30;98.00;;;;;;5051878;28;20450;-80
2024/02/26 08:06:37;;;;;;;5.10;3.33;;;8.40;98.00;;;;;;5051538;28;20456;-80
2024/02/26 08:09:04;;;;;;;5.07;2.80;;;8.40;98.00;;;;;;5052191;28;20464;-81
2024/02/26 08:11:31;;;;;;;5.23;3.13;;;8.40;98.00;;;;;;5052325;28;20451;-80
2024/02/26 08:13:59;;;;;;;4.20;2.70;;;8.30;98.00;;;;;;5052463;28;20473;-80
2024/02/26 08:16:27;;;;;;;6.40;2.87;;;8.30;98.00;;;;;;5052039;28;21012;-81
2024/02/26 08:18:54;;;;;;;5.00;3.23;;;8.20;98.00;;;;;;5034263;28;20937;-80
2024/02/26 08:21:22;;;;;;;5.63;3.17;;;8.20;98.00;;;;;;5051973;28;20960;-80
2024/02/26 08:23:50;;;;;;;4.97;3.30;;;8.20;98.00;;;;;;5052225;28;20480;-74
2024/02/26 08:26:20;;;;;;;16.63;3.23;;;8.30;98.00;;;;;;5051865;28;20449;-75
2024/02/26 08:28:49;;;;;;;7.43;3.50;;;8.40;98.00;;;;;;5051994;28;20446;-80
2024/02/26 08:31:16;;;;;;;6.07;3.50;;;8.50;98.00;;;;;;5052330;28;20507;-79
2024/02/26 08:33:43;;;;;;;6.30;3.37;;;8.60;98.00;;;;;;5051756;28;20482;-70
2024/02/26 08:36:10;;;;;;;5.20;3.27;;;8.70;98.00;;;;;;5052043;28;20946;-68
2024/02/26 08:38:37;;;;;;;6.90;3.80;;;8.70;98.00;;;;;;5051851;28;20442;-75
2024/02/26 08:41:06;;;;;;;7.67;4.00;;;8.70;98.00;;;;;;5051655;28;20966;-78
2024/02/26 08:43:33;;;;;;;9.33;4.27;;;8.60;98.00;;;;;;5052105;28;20454;-78
2024/02/26 08:46:00;;;;;;;6.93;3.90;;;8.60;98.00;;;;;;5051887;28;20476;-79
2024/02/26 08:48:27;;;;;;;6.90;4.00;;;8.60;98.00;;;;;;5051648;28;20558;-78
2024/02/26 08:50:54;;;;;;;8.43;4.17;;;8.70;98.00;;;;;;5051808;28;20509;-78
2024/02/26 08:53:22;;;;;;;11.57;5.00;;;8.80;98.00;;;;;;5051579;28;20488;-78
2024/02/26 08:55:49;;;;;;;11.13;5.50;;;9.00;98.00;;;;;;5051696;28;20460;-78
2024/02/26 08:58:17;;;;;;;9.10;4.83;;;9.20;98.00;;;;;;5034007;28;20532;-78
2024/02/26 09:00:45;;;;;;;8.77;4.50;;;9.30;98.00;;;;;;5051850;28;20447;-79
2024/02/26 09:03:12;;;;;;;9.43;4.30;;;9.40;98.00;;;;;;5017642;28;20453;-80
2024/02/26 09:05:40;;;;;;;8.40;4.27;;;9.40;98.00;;;;;;5051986;28;20457;-79
2024/02/26 09:08:08;;;;;;;8.73;4.47;;;9.30;98.00;;;;;;5051845;28;20454;-78
2024/02/26 09:10:36;;;;;;;6.40;3.87;;;9.30;98.00;;;;;;5051293;28;20444;-79
2024/02/26 09:13:03;;;;;;;8.40;4.23;;;9.20;98.00;;;;;;5051180;28;20482;-78
2024/02/26 09:15:32;;;;;;;8.17;3.87;;;9.40;98.00;;;;;;5055151;28;20454;-78
2024/02/26 09:17:59;;;;;;;6.80;4.30;;;9.40;98.00;;;;;;5054661;28;20454;-78
2024/02/26 09:20:26;;;;;;;9.00;4.03;;;9.40;98.00;;;;;;5055041;28;20455;-78
2024/02/26 09:22:53;;;;;;;8.83;4.20;;;9.40;98.00;;;;;;5055083;28;20460;-78
2024/02/26 09:25:20;;;;;;;6.33;3.90;;;9.50;98.00;;;;;;5054879;28;20471;-78
2024/02/26 09:27:48;;;;;;;7.20;4.17;;;9.60;98.00;;;;;;5054836;28;21011;-78
2024/02/26 09:30:15;;;;;;;10.13;4.00;;;9.80;98.00;;;;;;5054890;28;20587;-78
2024/02/26 09:32:48;;;;;;;9.00;4.27;;;9.90;98.00;;;;;;5054745;28;20453;-78
2024/02/26 09:35:15;;;;;;;6.47;3.90;;;10.00;98.00;;;;;;5054609;28;20485;-78
2024/02/26 09:37:44;;;;;;;6.83;3.73;;;10.10;98.00;;;;;;5054852;28;20941;-78
2024/02/26 09:40:12;;;;;;;13.67;5.07;;;10.00;98.00;;;;;;5054502;28;20792;-73
2024/02/26 09:42:44;;;;;;;7.73;4.40;;;10.00;98.00;;;;;;5054729;28;20486;-71
2024/02/26 09:45:18;;;;;;;9.60;4.80;;;10.00;98.00;;;;;;5054821;28;20456;-80
2024/02/26 09:47:48;;;;;;;13.67;5.87;;;10.00;98.00;;;;;;5054555;28;20487;-80
2024/02/26 09:50:17;;;;;;;21.40;7.60;;;10.00;98.00;;;;;;5054487;28;20450;-79
2024/02/26 09:52:45;;;;;;;20.77;9.00;;;10.00;98.00;;;;;;5054603;28;20454;-79
2024/02/26 09:55:12;;;;;;;12.17;5.63;;;10.00;98.00;;;;;;5054322;28;20458;-78
2024/02/26 09:57:42;;;;;;;9.80;4.47;;;10.10;98.00;;;;;;5054731;28;20457;-78
2024/02/26 10:00:15;;;;;;;9.13;4.43;;;10.10;98.00;;;;;;5054449;28;20458;-78
2024/02/26 10:02:43;;;;;;;6.07;3.33;;;10.20;98.00;;;;;;5054263;28;20454;-79
2024/02/26 10:05:15;;;;;;;6.30;3.30;;;10.30;98.00;;;;;;5054243;28;20457;-76
2024/02/26 10:07:45;;;;;;;6.87;2.90;;;10.40;98.00;;;;;;5020038;28;20521;-76
2024/02/26 10:10:12;;;;;;;6.10;3.20;;;10.80;98.00;;;;;;5054421;28;20486;-79
2024/02/26 10:12:39;;;;;;;7.93;3.90;;;11.00;98.00;;;;;;5054161;28;21020;-79
2024/02/26 10:15:07;;;;;;;6.50;3.60;;;11.20;98.00;;;;;;5036570;28;20489;-79
2024/02/26 10:17:36;;;;;;;8.23;4.47;;;11.30;98.00;;;;;;5036622;28;20452;-79
2024/02/26 10:20:18;;;;;;;8.47;3.70;;;11.30;98.00;;;;;;5053873;28;20465;-78
2024/02/26 10:22:49;;;;;;;7.50;3.70;;;11.40;98.00;;;;;;5054280;28;20477;-78
2024/02/26 10:25:16;;;;;;;6.13;3.27;;;11.40;98.00;;;;;;5052483;28;20455;-78
2024/02/26 10:27:43;;;;;;;7.57;3.53;;;11.30;98.00;;;;;;5052795;28;20455;-79
2024/02/26 10:30:19;;;;;;;5.47;3.23;;;11.30;98.00;;;;;;5053399;28;20516;-78
2024/02/26 10:32:47;;;;;;;8.70;3.93;;;11.60;98.00;;;;;;5053667;28;20536;-80
2024/02/26 10:35:14;;;;;;;7.07;3.10;;;11.90;98.00;;;;;;5051884;28;20570;-80
2024/02/26 10:37:43;;;;;;;5.40;3.10;;;12.20;98.00;;;;;;5052128;28;20462;-79
2024/02/26 10:40:11;;;;;;;6.10;3.43;;;12.30;98.00;;;;;;5053834;28;20535;-80
2024/02/26 10:42:39;;;;;;;8.00;3.43;;;12.30;98.00;;;;;;5053758;28;20490;-79
2024/02/26 10:45:07;;;;;;;7.50;3.40;;;12.50;98.00;;;;;;5053658;28;21093;-80
2024/02/26 10:47:35;;;;;;;7.40;3.40;;;12.50;98.00;;;;;;5053578;28;20860;-79
2024/02/26 10:50:04;;;;;;;4.37;2.90;;;12.50;98.00;;;;;;5053237;28;20462;-79
2024/02/26 10:52:33;;;;;;;3.80;2.60;;;12.60;98.00;;;;;;5053481;28;20980;-80
2024/02/26 10:55:04;;;;;;;3.97;2.57;;;12.50;98.00;;;;;;5053200;28;20526;-79
2024/02/26 10:57:34;;;;;;;4.00;2.50;;;12.60;98.00;;;;;;5052936;28;20531;-79
2024/02/26 11:00:05;;;;;;;5.53;2.40;;;13.00;98.00;;;;;;5052834;28;20454;-79
2024/02/26 11:02:35;;;;;;;4.73;2.70;;;13.20;98.00;;;;;;5052744;28;20486;-79
2024/02/26 11:05:07;;;;;;;4.80;2.77;;;13.40;98.00;;;;;;5052740;28;20460;-79
2024/02/26 11:07:36;;;;;;;6.93;3.67;;;13.50;98.00;;;;;;5052957;28;20459;-79
2024/02/26 11:10:06;;;;;;;5.70;3.20;;;13.60;98.00;;;;;;5052790;28;20459;-79
2024/02/26 11:12:35;;;;;;;5.27;2.87;;;13.50;98.00;;;;;;5052277;28;20499;-79
2024/02/26 11:15:05;;;;;;;4.50;2.80;;;13.40;98.00;;;;;;5052467;28;20523;-79
2024/02/26 11:17:34;;;;;;;2.93;2.47;;;13.30;98.00;;;;;;5054878;28;20454;-80
2024/02/26 11:20:02;;;;;;;6.07;2.83;;;13.20;98.00;;;;;;5057681;28;20458;-79
2024/02/26 11:22:29;;;;;;;3.33;2.40;;;13.20;98.00;;;;;;5054261;28;20456;-79
2024/02/26 11:25:00;;;;;;;4.30;2.33;;;13.20;98.00;;;;;;5052389;28;20463;-79
2024/02/26 11:27:34;;;;;;;3.53;2.20;;;13.20;98.00;;;;;;5052673;28;20540;-78
2024/02/26 11:30:04;;;;;;;3.43;2.40;;;13.20;98.00;;;;;;5034969;28;20454;-79
2024/02/26 11:32:34;;;;;;;2.80;2.27;;;13.40;98.00;;;;;;5052428;28;20474;-80
2024/02/26 11:35:02;;;;;;;5.17;2.57;;;13.40;98.00;;;;;;5034403;28;20483;-80
2024/02/26 11:37:29;;;;;;;3.57;2.30;;;13.30;98.00;;;;;;5052024;28;20458;-80
2024/02/26 11:40:00;;;;;;;2.90;2.20;;;13.30;98.00;;;;;;5052431;28;20451;-79
2024/02/26 11:42:29;;;;;;;3.73;2.30;;;13.40;98.00;;;;;;5052399;28;20482;-79
2024/02/26 11:45:00;;;;;;;3.10;2.17;;;13.50;98.00;;;;;;5052142;28;20461;-79
2024/02/26 11:47:28;;;;;;;5.70;2.30;;;13.70;98.00;;;;;;5035181;28;20453;-80
2024/02/26 11:49:56;;;;;;;2.67;2.00;;;14.00;98.00;;;;;;5052206;28;20955;-80
2024/02/26 11:52:23;;;;;;;2.70;1.90;;;14.10;98.00;;;;;;5034756;28;20463;-80
2024/02/26 11:54:52;;;;;;;2.07;1.80;;;14.10;98.00;;;;;;5052032;28;20499;-80
2024/02/26 11:57:27;;;;;;;2.67;1.70;;;14.20;98.00;;;;;;5051584;28;20817;-79
2024/02/26 12:00:12;;;;;;;2.40;1.73;;;14.10;98.00;;;;;;5051914;28;21085;-80
2024/02/26 12:02:41;;;;;;;2.90;2.07;;;14.10;98.00;;;;;;5052177;28;21041;-80
2024/02/26 12:05:11;;;;;;;2.57;1.90;;;14.20;98.00;;;;;;5051335;28;20552;-80
2024/02/26 12:07:40;;;;;;;3.40;2.00;;;14.10;98.00;;;;;;5052338;28;20480;-80
2024/02/26 12:10:26;;;;;;;4.13;2.20;;;14.00;98.00;;;;;;5052259;28;20458;-80
2024/02/26 12:13:00;;;;;;;3.47;2.23;;;13.90;98.00;;;;;;5052059;28;20453;-81
2024/02/26 12:15:33;;;;;;;5.07;2.20;;;13.80;98.00;;;;;;5052005;28;20567;-79
2024/02/26 12:18:03;;;;;;;3.10;2.30;;;13.80;98.00;;;;;;5052304;28;20582;-79
2024/02/26 12:20:31;;;;;;;3.33;2.33;;;13.80;98.00;;;;;;5052017;28;20456;-79
2024/02/26 12:23:00;;;;;;;3.00;1.93;;;13.80;98.00;;;;;;5052472;28;20460;-79
2024/02/26 12:25:29;;;;;;;3.07;2.20;;;13.90;98.00;;;;;;5052171;28;20935;-71
2024/02/26 12:27:56;;;;;;;5.00;2.10;;;14.10;98.00;;;;;;5052040;28;20951;-70
2024/02/26 12:30:25;;;;;;;2.67;2.23;;;14.50;98.00;;;;;;5052039;28;20766;-73
2024/02/26 12:32:57;;;;;;;2.70;1.90;;;15.00;98.00;;;;;;5034649;28;20453;-72
2024/02/26 12:35:24;;;;;;;3.40;2.50;;;15.40;98.00;;;;;;5051299;28;20488;-73
2024/02/26 12:37:53;;;;;;;5.27;2.30;;;15.80;98.00;;;;;;5051678;28;20454;-72
2024/02/26 12:40:21;;;;;;;2.93;2.33;;;16.20;98.00;;;;;;5051261;28;20464;-73
2024/02/26 12:42:49;;;;;;;4.27;2.40;;;16.50;98.00;;;;;;5051278;28;20456;-73
2024/02/26 12:45:16;;;;;;;4.97;2.30;;;16.80;98.00;;;;;;5051299;28;20817;-70
2024/02/26 12:47:47;;;;;;;3.87;2.50;;;16.90;98.00;;;;;;5051636;28;20833;-70
2024/02/26 12:50:17;;;;;;;4.30;2.53;;;16.90;98.00;;;;;;5055322;28;20458;-73
2024/02/26 12:52:46;;;;;;;4.33;2.60;;;17.00;98.00;;;;;;5055595;28;20452;-73
2024/02/26 12:55:17;;;;;;;5.60;2.57;;;17.10;98.00;;;;;;5055167;28;20539;-73
2024/02/26 12:57:46;;;;;;;6.50;3.27;;;17.00;98.00;;;;;;5055562;28;20515;-82